Leoville, Canada
Current Conditions -  °F | °C
As of 6:00 PM on Saturday 20 Dec 2014 (Local Time) from CYLJ Reporting Station
Overcast Overcast  
Wind Chill: 19°   Ceiling: 1500
Heat Index: 19°   Visibility: 15mi
Dew Point: 16°   Wind: 2mph
Humidity: 86%   Direction: 90°E
Pressure: 29.66"   Gusts: NA
Location:  53.63°N, 107.55°W
Report Text: CYLJ 210000Z 09002KT 15SM OVC015 M07/M09 A2966 RMK SC8 SN COV/MUCH LOOSE LAST OBS/NXT 21 1200 UTC SLP079
Loading
Personal Weather Stations






























Interactive Weather Map New forecast layout! Learn more

10-Day Weather Forecast

Advertisements
Track Severe Weather on mobile